Time;durP1;ratioP1;P1;durP2;ratioP2;P2;SDS_P1;SDS_P2;PMS_P1;PMS_P2;Temp;Humidity;BMP_temperature;BMP_pressure;BME280_temperature;BME280_humidity;BME280_pressure;Samples;Min_cycle;Max_cycle;Signal;HPM_P1;HPM_P2
2023/03/05 00:00:38;;;;;;;32.13;17.67;;;;;;;;;;6110528;23;20060;-77
2023/03/05 00:03:04;;;;;;;33.97;16.42;;;;;;;;;;6084609;23;20034;-78
2023/03/05 00:05:33;;;;;;;31.67;17.08;;;;;;;;;;6138324;23;20006;-77
2023/03/05 00:08:00;;;;;;;37.88;17.73;;;;;;;;;;6126254;23;20010;-77
2023/03/05 00:10:26;;;;;;;35.63;17.58;;;;;;;;;;6125940;23;20022;-76
2023/03/05 00:12:53;;;;;;;33.88;17.38;;;;;;;;;;6102800;23;20014;-76
2023/03/05 00:15:20;;;;;;;36.33;18.20;;;;;;;;;;6126117;23;20009;-76
2023/03/05 00:17:46;;;;;;;35.45;16.88;;;;;;;;;;6149751;23;20070;-77
2023/03/05 00:20:13;;;;;;;36.33;16.83;;;;;;;;;;6101128;23;20029;-78
2023/03/05 00:22:40;;;;;;;32.30;17.13;;;;;;;;;;6090068;23;20153;-79
2023/03/05 00:25:07;;;;;;;35.03;18.15;;;;;;;;;;6138294;23;20030;-79
2023/03/05 00:27:35;;;;;;;35.03;16.63;;;;;;;;;;6114709;23;20061;-79
2023/03/05 00:30:02;;;;;;;37.70;18.23;;;;;;;;;;6090648;23;20049;-79
2023/03/05 00:32:28;;;;;;;35.78;18.23;;;;;;;;;;6115747;23;20040;-78
2023/03/05 00:34:58;;;;;;;36.63;17.67;;;;;;;;;;6134945;23;20022;-79
2023/03/05 00:37:25;;;;;;;35.42;16.52;;;;;;;;;;6108377;23;20029;-78
2023/03/05 00:39:52;;;;;;;32.17;16.45;;;;;;;;;;6085024;23;20336;-78
2023/03/05 00:42:19;;;;;;;31.63;16.30;;;;;;;;;;6080216;23;20050;-78
2023/03/05 00:44:48;;;;;;;32.15;16.10;;;;;;;;;;6082871;23;20026;-78
2023/03/05 00:47:17;;;;;;;31.58;16.58;;;;;;;;;;6081195;23;20037;-77
2023/03/05 00:49:44;;;;;;;33.05;16.73;;;;;;;;;;6107365;23;20034;-78
2023/03/05 00:52:11;;;;;;;30.85;15.73;;;;;;;;;;6063373;23;20054;-78
2023/03/05 00:54:41;;;;;;;37.13;15.73;;;;;;;;;;6087468;23;20022;-78
2023/03/05 00:57:07;;;;;;;33.03;17.13;;;;;;;;;;6088397;23;20113;-79
2023/03/05 00:59:34;;;;;;;32.25;16.10;;;;;;;;;;6064149;23;20030;-77
2023/03/05 01:02:01;;;;;;;32.75;16.13;;;;;;;;;;6089620;23;20022;-78
2023/03/05 01:04:27;;;;;;;33.03;16.55;;;;;;;;;;6082492;23;20023;-78
2023/03/05 01:06:54;;;;;;;30.33;18.13;;;;;;;;;;6083769;23;20532;-77
2023/03/05 01:09:23;;;;;;;33.47;17.13;;;;;;;;;;6084576;23;20032;-78
2023/03/05 01:11:51;;;;;;;33.70;16.85;;;;;;;;;;6085740;23;20033;-78
2023/03/05 01:14:18;;;;;;;36.47;17.27;;;;;;;;;;6084915;23;20074;-79
2023/03/05 01:16:45;;;;;;;28.38;15.95;;;;;;;;;;6084235;23;20453;-79
2023/03/05 01:19:13;;;;;;;29.88;15.10;;;;;;;;;;6099389;23;20037;-79
2023/03/05 01:21:40;;;;;;;36.92;15.80;;;;;;;;;;6071390;23;20049;-79
2023/03/05 01:24:07;;;;;;;37.22;16.67;;;;;;;;;;6070362;23;20042;-79
2023/03/05 01:26:34;;;;;;;35.55;16.85;;;;;;;;;;6070508;23;20026;-79
2023/03/05 01:29:01;;;;;;;34.72;17.95;;;;;;;;;;6072394;23;20030;-79
2023/03/05 01:31:28;;;;;;;35.20;15.95;;;;;;;;;;6070674;23;20022;-79
2023/03/05 01:33:54;;;;;;;31.60;16.63;;;;;;;;;;6096913;23;20030;-78
2023/03/05 01:36:23;;;;;;;31.33;18.80;;;;;;;;;;6048847;23;20029;-77
2023/03/05 01:38:50;;;;;;;39.08;21.17;;;;;;;;;;6053623;23;20026;-78
2023/03/05 01:41:18;;;;;;;43.05;21.15;;;;;;;;;;6093613;23;20490;-78
2023/03/05 01:43:45;;;;;;;39.70;20.17;;;;;;;;;;6113247;23;20026;-78
2023/03/05 01:46:12;;;;;;;37.28;18.33;;;;;;;;;;6114603;23;20072;-78
2023/03/05 01:48:39;;;;;;;35.45;19.67;;;;;;;;;;6115913;23;20029;-78
2023/03/05 01:51:06;;;;;;;39.03;20.77;;;;;;;;;;6085009;23;20036;-79
2023/03/05 01:53:33;;;;;;;36.67;19.60;;;;;;;;;;6075906;23;20108;-79
2023/03/05 01:56:00;;;;;;;37.95;20.70;;;;;;;;;;6099034;23;20028;-79
2023/03/05 01:58:26;;;;;;;43.85;20.52;;;;;;;;;;6075621;23;20025;-79
2023/03/05 02:00:53;;;;;;;38.65;19.73;;;;;;;;;;6074745;23;20505;-80
2023/03/05 02:03:21;;;;;;;38.15;19.95;;;;;;;;;;6123986;23;20061;-79
2023/03/05 02:05:48;;;;;;;33.97;17.20;;;;;;;;;;6098533;23;20025;-79
2023/03/05 02:08:17;;;;;;;33.53;17.90;;;;;;;;;;6102432;23;20034;-81
2023/03/05 02:10:51;;;;;;;38.13;17.75;;;;;;;;;;6102589;23;20403;-80
2023/03/05 02:13:22;;;;;;;38.58;16.38;;;;;;;;;;6110725;23;20036;-79
2023/03/05 02:15:49;;;;;;;31.83;16.88;;;;;;;;;;6111146;23;20036;-79
2023/03/05 02:18:16;;;;;;;35.03;18.35;;;;;;;;;;6109611;23;20024;-79
2023/03/05 02:20:55;;;;;;;34.15;16.65;;;;;;;;;;6108882;23;20029;-79
2023/03/05 02:23:32;;;;;;;36.35;17.77;;;;;;;;;;6140610;23;20121;-79
2023/03/05 02:25:59;;;;;;;37.90;19.05;;;;;;;;;;6112559;23;20026;-79
2023/03/05 02:28:49;;;;;;;34.33;18.40;;;;;;;;;;6089124;23;20025;-79
2023/03/05 02:31:19;;;;;;;36.00;17.95;;;;;;;;;;6112844;23;20022;-79
2023/03/05 02:33:46;;;;;;;36.92;19.38;;;;;;;;;;6111214;23;20025;-79
2023/03/05 02:36:13;;;;;;;42.13;20.52;;;;;;;;;;6085430;23;20344;-80
2023/03/05 02:38:40;;;;;;;41.17;19.98;;;;;;;;;;6107855;23;20030;-83
2023/03/05 02:41:07;;;;;;;36.20;19.00;;;;;;;;;;6082832;23;20022;-79
2023/03/05 02:43:34;;;;;;;39.88;18.35;;;;;;;;;;6108003;23;20414;-79
2023/03/05 02:46:01;;;;;;;34.88;18.25;;;;;;;;;;6134122;23;20022;-79
2023/03/05 02:48:28;;;;;;;35.38;19.00;;;;;;;;;;6137681;23;20232;-79
2023/03/05 02:50:55;;;;;;;36.20;17.83;;;;;;;;;;6138723;23;20090;-79
2023/03/05 02:53:22;;;;;;;34.85;18.67;;;;;;;;;;6091790;23;20026;-78
2023/03/05 02:55:49;;;;;;;37.25;18.58;;;;;;;;;;6108121;23;20028;-79
2023/03/05 02:58:16;;;;;;;37.25;18.02;;;;;;;;;;6109653;23;20026;-78
2023/03/05 03:00:45;;;;;;;38.60;20.10;;;;;;;;;;6111765;23;20101;-78
2023/03/05 03:03:12;;;;;;;35.97;17.45;;;;;;;;;;6111806;23;20037;-78
2023/03/05 03:05:39;;;;;;;40.13;20.42;;;;;;;;;;6109833;23;20026;-78
2023/03/05 03:08:06;;;;;;;37.45;20.55;;;;;;;;;;6112792;23;20025;-79
2023/03/05 03:10:33;;;;;;;38.35;19.35;;;;;;;;;;6114836;23;20117;-79
2023/03/05 03:13:00;;;;;;;40.13;19.08;;;;;;;;;;6141557;23;20041;-78
2023/03/05 03:15:26;;;;;;;42.03;19.88;;;;;;;;;;6117405;23;20076;-78
2023/03/05 03:17:53;;;;;;;45.45;19.65;;;;;;;;;;6118690;23;20082;-78
2023/03/05 03:20:21;;;;;;;35.15;18.48;;;;;;;;;;6092966;23;20033;-78
2023/03/05 03:22:50;;;;;;;31.98;18.25;;;;;;;;;;6113180;23;20356;-78
2023/03/05 03:25:19;;;;;;;38.90;18.98;;;;;;;;;;6103818;23;20022;-77
2023/03/05 03:27:46;;;;;;;35.13;18.90;;;;;;;;;;6104605;23;20026;-77
2023/03/05 03:30:13;;;;;;;37.83;19.23;;;;;;;;;;6081156;23;20476;-77
2023/03/05 03:32:40;;;;;;;36.55;17.67;;;;;;;;;;6106279;23;20029;-77
2023/03/05 03:35:07;;;;;;;43.90;20.63;;;;;;;;;;6083994;23;20461;-77
2023/03/05 03:37:34;;;;;;;37.72;19.15;;;;;;;;;;6107760;23;20086;-77
2023/03/05 03:40:01;;;;;;;38.17;19.13;;;;;;;;;;6077152;23;20025;-78
2023/03/05 03:42:28;;;;;;;42.47;20.10;;;;;;;;;;6100641;23;20030;-78
2023/03/05 03:44:54;;;;;;;40.03;20.02;;;;;;;;;;6100229;23;20496;-78
2023/03/05 03:47:21;;;;;;;44.72;20.45;;;;;;;;;;6099739;23;20032;-78
2023/03/05 03:49:48;;;;;;;37.28;19.20;;;;;;;;;;6100129;23;20026;-78
2023/03/05 03:52:14;;;;;;;39.97;19.65;;;;;;;;;;6129378;23;20100;-79
2023/03/05 03:54:41;;;;;;;36.63;18.70;;;;;;;;;;6099497;23;20556;-78
2023/03/05 03:57:08;;;;;;;40.75;20.30;;;;;;;;;;6099297;23;20034;-78
2023/03/05 03:59:35;;;;;;;36.85;19.13;;;;;;;;;;6075769;23;20030;-77
2023/03/05 04:02:02;;;;;;;34.45;18.77;;;;;;;;;;6076263;23;20478;-77
2023/03/05 04:04:29;;;;;;;41.17;18.00;;;;;;;;;;6078042;23;20044;-78
2023/03/05 04:06:56;;;;;;;39.88;19.65;;;;;;;;;;6078495;23;20077;-78
2023/03/05 04:09:23;;;;;;;38.60;18.65;;;;;;;;;;6101118;23;20105;-78
2023/03/05 04:11:49;;;;;;;37.92;18.08;;;;;;;;;;6079727;23;20061;-79
2023/03/05 04:14:16;;;;;;;39.10;18.77;;;;;;;;;;6131612;23;20025;-79
2023/03/05 04:16:43;;;;;;;38.63;19.52;;;;;;;;;;6104343;23;20036;-78
2023/03/05 04:19:10;;;;;;;42.70;20.45;;;;;;;;;;6103402;23;20093;-77
2023/03/05 04:21:36;;;;;;;39.67;18.75;;;;;;;;;;6102543;23;20432;-78
2023/03/05 04:24:03;;;;;;;41.20;18.08;;;;;;;;;;6083195;23;20060;-79
2023/03/05 04:26:30;;;;;;;36.72;18.60;;;;;;;;;;6108423;23;20021;-78
2023/03/05 04:28:57;;;;;;;33.10;17.77;;;;;;;;;;6108483;23;20026;-78
2023/03/05 04:31:24;;;;;;;39.58;17.50;;;;;;;;;;6108795;23;20356;-78
2023/03/05 04:33:50;;;;;;;36.40;18.30;;;;;;;;;;6132325;23;20026;-78
2023/03/05 04:36:19;;;;;;;33.72;17.70;;;;;;;;;;6109552;23;20022;-79
2023/03/05 04:38:46;;;;;;;28.25;14.52;;;;;;;;;;6083969;23;20025;-79
2023/03/05 04:41:13;;;;;;;34.17;16.58;;;;;;;;;;6114238;23;20068;-80
2023/03/05 04:43:39;;;;;;;30.38;15.23;;;;;;;;;;6087865;23;20025;-80
2023/03/05 04:46:06;;;;;;;25.15;13.68;;;;;;;;;;6104512;23;20032;-79
2023/03/05 04:48:33;;;;;;;34.70;14.38;;;;;;;;;;6102693;23;20408;-78
2023/03/05 04:51:00;;;;;;;31.98;14.27;;;;;;;;;;6075439;23;20033;-79
2023/03/05 04:53:27;;;;;;;26.90;12.40;;;;;;;;;;6076414;23;20361;-79
2023/03/05 04:55:54;;;;;;;31.17;13.38;;;;;;;;;;6082209;23;20022;-81
2023/03/05 04:58:21;;;;;;;27.08;13.20;;;;;;;;;;6134940;23;20434;-82
2023/03/05 05:01:00;;;;;;;26.90;12.82;;;;;;;;;;6108611;23;20259;-82
2023/03/05 05:03:35;;;;;;;25.58;12.07;;;;;;;;;;6106929;23;20026;-82
2023/03/05 05:06:02;;;;;;;23.05;12.45;;;;;;;;;;6085563;23;20448;-82
2023/03/05 05:08:29;;;;;;;29.83;12.30;;;;;;;;;;6111567;23;20032;-81
2023/03/05 05:10:59;;;;;;;28.08;13.80;;;;;;;;;;6135802;23;20081;-81
2023/03/05 05:13:30;;;;;;;30.10;13.88;;;;;;;;;;6134682;23;20415;-82
2023/03/05 05:15:57;;;;;;;30.75;14.15;;;;;;;;;;6109963;23;20018;-81
2023/03/05 05:18:25;;;;;;;29.85;12.88;;;;;;;;;;6110977;23;20037;-81
2023/03/05 05:20:52;;;;;;;24.95;11.63;;;;;;;;;;6111886;23;20026;-81
2023/03/05 05:23:19;;;;;;;27.88;13.15;;;;;;;;;;6110969;23;20034;-81
2023/03/05 05:25:45;;;;;;;23.67;12.02;;;;;;;;;;6110636;23;20022;-81
2023/03/05 05:28:16;;;;;;;22.30;11.45;;;;;;;;;;6087787;23;20101;-81
2023/03/05 05:30:45;;;;;;;29.20;12.35;;;;;;;;;;6130482;23;20465;-80
2023/03/05 05:33:12;;;;;;;25.55;11.20;;;;;;;;;;6102711;23;20032;-81
2023/03/05 05:35:39;;;;;;;25.50;12.48;;;;;;;;;;6084128;23;20030;-80
2023/03/05 05:38:06;;;;;;;26.80;11.65;;;;;;;;;;6111527;23;20045;-81
2023/03/05 05:40:33;;;;;;;27.92;12.82;;;;;;;;;;6111656;23;20085;-80
2023/03/05 05:43:01;;;;;;;25.38;12.20;;;;;;;;;;6087758;23;20057;-81
2023/03/05 05:45:27;;;;;;;25.90;11.63;;;;;;;;;;6087398;23;20077;-80
2023/03/05 05:47:54;;;;;;;30.42;12.70;;;;;;;;;;6135194;23;20037;-80
2023/03/05 05:50:21;;;;;;;27.95;13.07;;;;;;;;;;6110890;23;20025;-79
2023/03/05 05:52:50;;;;;;;27.67;12.95;;;;;;;;;;6108785;23;20074;-80
2023/03/05 05:55:19;;;;;;;23.98;11.30;;;;;;;;;;6108871;23;20036;-81
2023/03/05 05:57:45;;;;;;;27.92;12.25;;;;;;;;;;6109714;23;20086;-80
2023/03/05 06:00:13;;;;;;;26.13;11.68;;;;;;;;;;6110854;23;20028;-79
2023/03/05 06:02:41;;;;;;;20.77;11.38;;;;;;;;;;6136038;23;20217;-79
2023/03/05 06:05:10;;;;;;;30.05;12.25;;;;;;;;;;6134833;23;20483;-80
2023/03/05 06:07:37;;;;;;;27.70;12.18;;;;;;;;;;6108371;23;20078;-81
2023/03/05 06:10:05;;;;;;;26.45;11.45;;;;;;;;;;6084074;23;20021;-80
2023/03/05 06:12:34;;;;;;;27.17;11.98;;;;;;;;;;6111307;23;20064;-80
2023/03/05 06:15:00;;;;;;;23.27;10.68;;;;;;;;;;6109587;23;20025;-79
2023/03/05 06:17:27;;;;;;;26.73;11.57;;;;;;;;;;6132395;23;20038;-79
2023/03/05 06:19:57;;;;;;;23.13;10.48;;;;;;;;;;6135001;23;20018;-80
2023/03/05 06:22:24;;;;;;;25.85;11.20;;;;;;;;;;6134385;23;20037;-80
2023/03/05 06:24:50;;;;;;;22.80;11.45;;;;;;;;;;6084227;23;20040;-80
2023/03/05 06:27:17;;;;;;;25.33;11.55;;;;;;;;;;6106757;23;20018;-80
2023/03/05 06:29:44;;;;;;;24.38;11.90;;;;;;;;;;6131159;23;20060;-80
2023/03/05 06:32:10;;;;;;;21.13;10.93;;;;;;;;;;6082042;23;20026;-80
2023/03/05 06:34:37;;;;;;;23.95;12.45;;;;;;;;;;6110055;23;20058;-80
2023/03/05 06:37:04;;;;;;;26.63;12.85;;;;;;;;;;6107557;23;20486;-81
2023/03/05 06:39:31;;;;;;;24.67;11.55;;;;;;;;;;6083452;23;20535;-81
2023/03/05 06:41:58;;;;;;;22.88;11.50;;;;;;;;;;6104841;23;20022;-80
2023/03/05 06:44:27;;;;;;;25.67;12.18;;;;;;;;;;6130316;23;20022;-80
2023/03/05 06:46:53;;;;;;;26.98;12.57;;;;;;;;;;6113178;23;20121;-79
2023/03/05 06:49:21;;;;;;;25.83;11.50;;;;;;;;;;6118300;23;20056;-80
2023/03/05 06:51:53;;;;;;;22.90;10.45;;;;;;;;;;6109796;23;20030;-80
2023/03/05 06:54:20;;;;;;;23.98;11.18;;;;;;;;;;6110886;23;20033;-82
2023/03/05 06:56:47;;;;;;;27.05;12.55;;;;;;;;;;6137757;23;20026;-79
2023/03/05 06:59:14;;;;;;;25.67;11.25;;;;;;;;;;6114618;23;20037;-79
2023/03/05 07:01:42;;;;;;;25.17;11.40;;;;;;;;;;6113176;23;20057;-79
2023/03/05 07:04:10;;;;;;;26.95;12.45;;;;;;;;;;6114306;23;20036;-78
2023/03/05 07:06:37;;;;;;;22.50;11.82;;;;;;;;;;6113973;23;20022;-79
2023/03/05 07:09:05;;;;;;;25.23;11.98;;;;;;;;;;6112108;23;20040;-80
2023/03/05 07:11:33;;;;;;;27.98;11.95;;;;;;;;;;6080926;23;20026;-79
2023/03/05 07:14:00;;;;;;;26.52;12.48;;;;;;;;;;6129028;23;20038;-79
2023/03/05 07:16:28;;;;;;;23.27;10.98;;;;;;;;;;6100985;23;20076;-84
2023/03/05 07:18:56;;;;;;;28.17;11.77;;;;;;;;;;6098344;23;20029;-87
2023/03/05 07:21:25;;;;;;;25.23;11.10;;;;;;;;;;6098092;23;20519;-80
2023/03/05 07:23:53;;;;;;;23.45;11.77;;;;;;;;;;6098725;23;20363;-78
2023/03/05 07:26:20;;;;;;;25.13;11.95;;;;;;;;;;6098992;23;20036;-85
2023/03/05 07:28:47;;;;;;;26.30;11.93;;;;;;;;;;6077012;23;20487;-83
2023/03/05 07:31:19;;;;;;;25.80;11.65;;;;;;;;;;6080083;23;20041;-85
2023/03/05 07:33:47;;;;;;;24.15;11.30;;;;;;;;;;6106904;23;20026;-84
2023/03/05 07:36:15;;;;;;;28.83;12.55;;;;;;;;;;6120258;23;20325;-83
2023/03/05 07:38:42;;;;;;;30.15;11.95;;;;;;;;;;6123858;23;20053;-81
2023/03/05 07:41:18;;;;;;;28.98;13.32;;;;;;;;;;6124622;23;20013;-82
2023/03/05 07:43:46;;;;;;;27.30;12.07;;;;;;;;;;6125001;23;20052;-82
2023/03/05 07:46:14;;;;;;;20.42;11.63;;;;;;;;;;6142578;23;20034;-84
2023/03/05 07:48:42;;;;;;;25.48;11.65;;;;;;;;;;6103263;23;20029;-84
2023/03/05 07:51:14;;;;;;;29.65;12.45;;;;;;;;;;6099706;23;20072;-84
2023/03/05 07:53:42;;;;;;;26.52;11.95;;;;;;;;;;6097965;23;20040;-85
2023/03/05 07:56:09;;;;;;;26.75;11.43;;;;;;;;;;6102900;23;20222;-85
2023/03/05 07:58:36;;;;;;;24.90;12.38;;;;;;;;;;6098088;23;20508;-82
2023/03/05 08:01:03;;;;;;;22.77;12.15;;;;;;;;;;6072873;23;20105;-85
2023/03/05 08:03:30;;;;;;;23.92;11.70;;;;;;;;;;6097448;23;20076;-83
2023/03/05 08:05:56;;;;;;;29.70;13.57;;;;;;;;;;6121749;23;20025;-86
2023/03/05 08:08:23;;;;;;;23.10;12.88;;;;;;;;;;6074619;23;20132;-86
2023/03/05 08:10:51;;;;;;;25.13;13.07;;;;;;;;;;6096398;23;20036;-85
2023/03/05 08:13:19;;;;;;;25.42;13.60;;;;;;;;;;6120415;23;20145;-85
2023/03/05 08:15:45;;;;;;;26.50;14.18;;;;;;;;;;6096433;23;20029;-85
2023/03/05 08:18:14;;;;;;;25.50;12.75;;;;;;;;;;6072196;23;20026;-86
2023/03/05 08:20:48;;;;;;;23.55;12.38;;;;;;;;;;6120127;23;20413;-85
2023/03/05 08:23:14;;;;;;;28.02;12.98;;;;;;;;;;6121357;23;20399;-83
2023/03/05 08:25:41;;;;;;;30.90;15.88;;;;;;;;;;6121895;23;20030;-83
2023/03/05 08:28:09;;;;;;;28.02;13.60;;;;;;;;;;6072807;23;20160;-84
2023/03/05 08:30:36;;;;;;;24.17;11.52;;;;;;;;;;6095506;23;20034;-83
2023/03/05 08:33:03;;;;;;;24.70;12.35;;;;;;;;;;6096292;23;20022;-81
2023/03/05 08:35:30;;;;;;;24.05;12.77;;;;;;;;;;6097181;23;20042;-82
2023/03/05 08:37:56;;;;;;;29.20;12.52;;;;;;;;;;6120754;23;20053;-77
2023/03/05 08:40:23;;;;;;;23.92;12.13;;;;;;;;;;6120117;23;20496;-80
2023/03/05 08:42:50;;;;;;;21.40;11.32;;;;;;;;;;6098073;23;20030;-81
2023/03/05 08:45:20;;;;;;;26.10;11.82;;;;;;;;;;6106292;23;20057;-82
2023/03/05 08:47:48;;;;;;;27.15;11.30;;;;;;;;;;6101919;23;20037;-81
2023/03/05 08:50:16;;;;;;;25.15;12.40;;;;;;;;;;6101886;23;20355;-81
2023/03/05 08:52:43;;;;;;;21.42;10.88;;;;;;;;;;6102926;23;20030;-80
2023/03/05 08:55:11;;;;;;;25.52;11.93;;;;;;;;;;6102873;23;20044;-82
2023/03/05 08:57:38;;;;;;;27.05;11.88;;;;;;;;;;6099831;23;20097;-81
2023/03/05 09:00:06;;;;;;;24.10;11.38;;;;;;;;;;6075384;23;20367;-80
2023/03/05 09:02:34;;;;;;;24.15;12.48;;;;;;;;;;6100420;23;20410;-80
2023/03/05 09:05:01;;;;;;;24.77;11.57;;;;;;;;;;6100060;23;20030;-79
2023/03/05 09:07:30;;;;;;;24.98;12.10;;;;;;;;;;6099564;23;20022;-81
2023/03/05 09:10:09;;;;;;;22.20;10.48;;;;;;;;;;6100531;23;20026;-80
2023/03/05 09:12:37;;;;;;;28.88;12.52;;;;;;;;;;6118824;23;20030;-81
2023/03/05 09:15:07;;;;;;;24.13;11.13;;;;;;;;;;6084070;23;20129;-81
2023/03/05 09:17:35;;;;;;;22.50;11.75;;;;;;;;;;6101320;23;20074;-81
2023/03/05 09:20:03;;;;;;;22.77;11.90;;;;;;;;;;6102185;23;20064;-80
2023/03/05 09:22:30;;;;;;;28.13;11.95;;;;;;;;;;6099738;23;20555;-74
2023/03/05 09:24:57;;;;;;;24.90;11.93;;;;;;;;;;6099140;23;20101;-80
2023/03/05 09:27:24;;;;;;;27.27;11.80;;;;;;;;;;6099603;23;20022;-80
2023/03/05 09:29:52;;;;;;;23.70;11.57;;;;;;;;;;6077362;23;20018;-80
2023/03/05 09:32:18;;;;;;;22.77;11.30;;;;;;;;;;6101344;23;20037;-80
2023/03/05 09:34:45;;;;;;;27.52;11.57;;;;;;;;;;6102324;23;20089;-80
2023/03/05 09:37:12;;;;;;;25.60;11.50;;;;;;;;;;6101778;23;20026;-80
2023/03/05 09:39:40;;;;;;;24.15;11.55;;;;;;;;;;6101986;23;20030;-80
2023/03/05 09:42:40;;;;;;;28.20;12.75;;;;;;;;;;6102036;23;20044;-80
2023/03/05 09:45:26;;;;;;;23.85;11.30;;;;;;;;;;6108063;23;20535;-80
2023/03/05 09:48:09;;;;;;;27.08;13.52;;;;;;;;;;6126627;23;20025;-80
2023/03/05 09:50:41;;;;;;;25.10;12.13;;;;;;;;;;6125751;23;20399;-80
2023/03/05 09:53:17;;;;;;;23.17;12.35;;;;;;;;;;6102008;23;20065;-78
2023/03/05 09:55:54;;;;;;;23.15;11.55;;;;;;;;;;6100818;23;20113;-79
2023/03/05 09:58:53;;;;;;;26.63;12.38;;;;;;;;;;6126873;23;20022;-80
2023/03/05 10:01:48;;;;;;;23.83;11.98;;;;;;;;;;6105625;23;20026;-80
2023/03/05 10:04:24;;;;;;;26.40;12.30;;;;;;;;;;6079090;23;20026;-79
2023/03/05 10:06:59;;;;;;;25.98;12.95;;;;;;;;;;6107808;23;20026;-79
2023/03/05 10:09:44;;;;;;;22.83;12.15;;;;;;;;;;6131817;23;20329;-79
2023/03/05 10:12:13;;;;;;;27.27;12.13;;;;;;;;;;6108954;23;20041;-79
2023/03/05 10:14:40;;;;;;;26.17;12.77;;;;;;;;;;6107122;23;20421;-79
2023/03/05 10:17:29;;;;;;;23.42;12.48;;;;;;;;;;6130979;23;20472;-79
2023/03/05 10:20:00;;;;;;;23.70;11.43;;;;;;;;;;6105225;23;20105;-79
2023/03/05 10:22:28;;;;;;;22.85;11.30;;;;;;;;;;6108209;23;20048;-79
2023/03/05 10:25:32;;;;;;;22.13;11.27;;;;;;;;;;6104440;23;20073;-79
2023/03/05 10:28:16;;;;;;;24.95;12.45;;;;;;;;;;6109116;23;20029;-80
2023/03/05 10:31:20;;;;;;;27.58;10.85;;;;;;;;;;6106930;23;20036;-81
2023/03/05 10:33:59;;;;;;;22.15;11.50;;;;;;;;;;6080276;23;20026;-80
2023/03/05 10:37:11;;;;;;;21.50;11.82;;;;;;;;;;6104146;23;20216;-78
2023/03/05 10:40:08;;;;;;;24.02;11.95;;;;;;;;;;6105493;23;20026;-80
2023/03/05 10:42:44;;;;;;;24.35;11.60;;;;;;;;;;6105354;23;20495;-81
2023/03/05 10:45:16;;;;;;;25.73;11.82;;;;;;;;;;6107310;23;20029;-81
2023/03/05 10:47:53;;;;;;;21.83;11.07;;;;;;;;;;6106976;23;20057;-81
2023/03/05 10:50:25;;;;;;;22.77;11.85;;;;;;;;;;6109648;23;20184;-80
2023/03/05 10:53:12;;;;;;;23.83;11.52;;;;;;;;;;6079320;23;20026;-79
2023/03/05 10:55:40;;;;;;;22.60;12.45;;;;;;;;;;6101918;23;20026;-79
2023/03/05 10:58:15;;;;;;;21.63;11.65;;;;;;;;;;6099897;23;20025;-78
2023/03/05 11:01:23;;;;;;;25.88;12.65;;;;;;;;;;6106028;23;20080;-80
2023/03/05 11:03:54;;;;;;;23.85;11.40;;;;;;;;;;6095766;23;20476;-79
2023/03/05 11:06:44;;;;;;;24.58;12.27;;;;;;;;;;6103784;23;20054;-79
2023/03/05 11:09:14;;;;;;;25.25;13.20;;;;;;;;;;6105509;23;20125;-79
2023/03/05 11:11:41;;;;;;;26.52;12.43;;;;;;;;;;6104684;23;20040;-78
2023/03/05 11:14:28;;;;;;;25.35;12.20;;;;;;;;;;6082336;23;20363;-80
2023/03/05 11:16:56;;;;;;;25.88;13.68;;;;;;;;;;6083356;23;20026;-80
2023/03/05 11:19:38;;;;;;;25.70;12.88;;;;;;;;;;6086227;23;20097;-82
2023/03/05 11:22:19;;;;;;;26.55;15.02;;;;;;;;;;6086939;23;20030;-80
2023/03/05 11:25:14;;;;;;;33.53;13.43;;;;;;;;;;6110111;23;20359;-79
2023/03/05 11:27:54;;;;;;;28.00;12.52;;;;;;;;;;6083965;23;20416;-84
2023/03/05 11:30:25;;;;;;;30.13;14.65;;;;;;;;;;6107044;23;20129;-80
2023/03/05 11:33:18;;;;;;;25.65;13.40;;;;;;;;;;6091969;23;20026;-80
2023/03/05 11:35:45;;;;;;;24.88;12.90;;;;;;;;;;6118214;23;20150;-80
2023/03/05 11:38:17;;;;;;;24.15;12.90;;;;;;;;;;6133683;23;20049;-80
2023/03/05 11:40:44;;;;;;;24.42;12.70;;;;;;;;;;6109926;23;20481;-80
2023/03/05 11:43:16;;;;;;;26.95;13.30;;;;;;;;;;6109310;23;20030;-80
2023/03/05 11:45:43;;;;;;;27.98;14.45;;;;;;;;;;6085918;23;20033;-81
2023/03/05 11:48:24;;;;;;;25.95;12.65;;;;;;;;;;6104721;23;20026;-79
2023/03/05 11:50:53;;;;;;;26.02;12.23;;;;;;;;;;6107958;23;20523;-80
2023/03/05 11:53:35;;;;;;;27.58;12.57;;;;;;;;;;6111608;23;20034;-80
2023/03/05 11:56:35;;;;;;;22.38;10.88;;;;;;;;;;6111034;23;20067;-79
2023/03/05 11:59:11;;;;;;;22.63;12.05;;;;;;;;;;6107042;23;20022;-81
2023/03/05 12:01:46;;;;;;;22.92;10.65;;;;;;;;;;6124979;23;20029;-77
2023/03/05 12:04:14;;;;;;;24.85;11.98;;;;;;;;;;6100443;23;20030;-78
2023/03/05 12:06:47;;;;;;;19.25;11.45;;;;;;;;;;6129060;23;20390;-79
2023/03/05 12:09:13;;;;;;;21.42;11.13;;;;;;;;;;6106748;23;20036;-78
2023/03/05 12:11:40;;;;;;;18.67;10.77;;;;;;;;;;6106029;23;20036;-79
2023/03/05 12:14:24;;;;;;;18.88;10.73;;;;;;;;;;6102030;23;20552;-79
2023/03/05 12:16:57;;;;;;;18.65;10.35;;;;;;;;;;6076820;23;20476;-78
2023/03/05 12:19:47;;;;;;;20.55;11.13;;;;;;;;;;6076877;23;20360;-79
2023/03/05 12:22:22;;;;;;;20.92;10.75;;;;;;;;;;6080180;23;20061;-83
2023/03/05 12:24:49;;;;;;;26.40;11.40;;;;;;;;;;6077075;23;20150;-79
2023/03/05 12:27:32;;;;;;;21.02;11.38;;;;;;;;;;6069792;23;20033;-78
2023/03/05 12:30:01;;;;;;;20.88;11.07;;;;;;;;;;6077384;23;20032;-80
2023/03/05 12:32:30;;;;;;;22.83;11.82;;;;;;;;;;6081379;23;20025;-79
2023/03/05 12:35:26;;;;;;;23.02;11.50;;;;;;;;;;6103770;23;20026;-80
2023/03/05 12:37:56;;;;;;;23.27;11.48;;;;;;;;;;6104163;23;20077;-80
2023/03/05 12:40:32;;;;;;;23.85;11.85;;;;;;;;;;6127811;23;20033;-80
2023/03/05 12:42:59;;;;;;;21.25;11.27;;;;;;;;;;6101889;23;20034;-80
2023/03/05 12:45:38;;;;;;;27.95;12.52;;;;;;;;;;6102399;23;20081;-79
2023/03/05 12:48:10;;;;;;;26.00;12.05;;;;;;;;;;6101408;23;20033;-80
2023/03/05 12:50:37;;;;;;;24.38;11.77;;;;;;;;;;6102469;23;20030;-80
2023/03/05 12:53:07;;;;;;;24.15;11.55;;;;;;;;;;6104305;23;20030;-81
2023/03/05 12:55:46;;;;;;;24.20;11.52;;;;;;;;;;6103508;23;20033;-79
2023/03/05 12:59:08;;;;;;;21.13;11.40;;;;;;;;;;6103361;23;20022;-80
2023/03/05 13:01:43;;;;;;;22.10;11.82;;;;;;;;;;6100097;23;20053;-80
2023/03/05 13:04:18;;;;;;;21.23;11.40;;;;;;;;;;6102635;23;20034;-80
2023/03/05 13:06:45;;;;;;;23.60;11.30;;;;;;;;;;6103285;23;20421;-81
2023/03/05 13:09:23;;;;;;;22.40;11.77;;;;;;;;;;6104943;23;20069;-79
2023/03/05 13:11:51;;;;;;;26.75;11.50;;;;;;;;;;6075712;23;20109;-81
2023/03/05 13:14:32;;;;;;;20.63;11.30;;;;;;;;;;6074882;23;20101;-79
2023/03/05 13:16:59;;;;;;;21.52;11.77;;;;;;;;;;6101237;23;20533;-81
2023/03/05 13:19:26;;;;;;;21.40;11.27;;;;;;;;;;6124210;23;20018;-79
2023/03/05 13:21:59;;;;;;;23.17;12.48;;;;;;;;;;6124280;23;20058;-79
2023/03/05 13:24:28;;;;;;;21.58;11.48;;;;;;;;;;6102831;23;20030;-81
2023/03/05 13:26:54;;;;;;;26.75;12.68;;;;;;;;;;6101628;23;20029;-80
2023/03/05 13:29:25;;;;;;;24.17;12.15;;;;;;;;;;6125150;23;20415;-80
2023/03/05 13:32:00;;;;;;;23.45;12.20;;;;;;;;;;6123636;23;20117;-80
2023/03/05 13:34:36;;;;;;;22.00;11.25;;;;;;;;;;6076467;23;20061;-79
2023/03/05 13:37:20;;;;;;;20.73;10.98;;;;;;;;;;6079443;23;20037;-80
2023/03/05 13:39:51;;;;;;;23.20;12.30;;;;;;;;;;6073426;23;20032;-79
2023/03/05 13:42:27;;;;;;;20.55;11.38;;;;;;;;;;6097109;23;20057;-79
2023/03/05 13:44:55;;;;;;;22.27;12.43;;;;;;;;;;6100229;23;20144;-79
2023/03/05 13:47:24;;;;;;;25.63;11.13;;;;;;;;;;6099076;23;20030;-79
2023/03/05 13:50:06;;;;;;;23.25;12.32;;;;;;;;;;6100108;23;20040;-80
2023/03/05 13:52:35;;;;;;;19.95;11.88;;;;;;;;;;6100877;23;20072;-82
2023/03/05 13:55:04;;;;;;;19.83;11.07;;;;;;;;;;6102499;23;20025;-81
2023/03/05 13:57:34;;;;;;;26.38;12.02;;;;;;;;;;6104667;23;20033;-82
2023/03/05 14:00:02;;;;;;;22.73;11.65;;;;;;;;;;6102789;23;20036;-80
2023/03/05 14:02:29;;;;;;;21.15;11.30;;;;;;;;;;6104503;23;20034;-80
2023/03/05 14:04:59;;;;;;;24.70;11.82;;;;;;;;;;6107502;23;20150;-81
2023/03/05 14:07:35;;;;;;;16.38;10.98;;;;;;;;;;6106366;23;20101;-81
2023/03/05 14:10:03;;;;;;;19.05;10.32;;;;;;;;;;6107675;23;20028;-81
2023/03/05 14:12:41;;;;;;;20.45;10.80;;;;;;;;;;6107035;23;20030;-80
2023/03/05 14:15:30;;;;;;;21.88;11.93;;;;;;;;;;6109018;23;20054;-80
2023/03/05 14:18:10;;;;;;;23.70;12.10;;;;;;;;;;6103567;23;20407;-80
2023/03/05 14:21:06;;;;;;;16.50;10.20;;;;;;;;;;6104769;23;20053;-79
2023/03/05 14:23:46;;;;;;;20.85;11.10;;;;;;;;;;6077752;23;20036;-80
2023/03/05 14:26:24;;;;;;;20.35;10.43;;;;;;;;;;6103749;23;20085;-80
2023/03/05 14:29:09;;;;;;;17.77;9.52;;;;;;;;;;6102484;23;20032;-82
2023/03/05 14:32:06;;;;;;;19.27;10.98;;;;;;;;;;6101329;23;20025;-82
2023/03/05 14:34:39;;;;;;;18.90;10.93;;;;;;;;;;6078323;23;20100;-82
2023/03/05 14:37:40;;;;;;;22.13;10.95;;;;;;;;;;6078288;23;20073;-82